Other Surface Observations
Issued by NWS Great Falls, MT

Home | Current Version | Previous Version | Text Only | Print | Product List | Glossary On
Versions: 1 2 3 4 5 6 7 8 9 10 11 12 13 14 15 16 17 18 19 20 21 22 23 24 25 26 27 28 29 30 31 32 33 34 35 36 37 38 39 40 41 42 43 44 45 46 47 48 49 50
000
SXUS55 KTFX 122123
OSOTFX
AREA AWOS OBSERVATIONS
NATIONAL WEATHER SERVICE GREAT FALLS MT
0320 PM MDT SAT JUL 12 2014

METAR KPWD 122115Z AUTO 30014G22KT 9SM 25/11 A3009 RMK PLENTYWOOD
METAR KPO1 122115Z AUTO 31014G19KT 27/09 A3011 RMK POPLAR
METAR K1S3 122115Z AUTO 33008KT 10SM 31/07 A3015 RMK FORSYTH
METAR K79S 122115Z AUTO 20004KT 10SM 32/07 A3018 RMK FORT BENTON
METAR KEKS 122115Z AUTO 32009KT 10SM 26/12 A3035 RMK ENNIS
METAR K38S 122115Z AUTO 35003KT 10SM 29/06 A3028 RMK DEER LODGE
METAR K3U3 122115Z AUTO 01006KT 10SM 28/09 A3025 RMK ANACONDA
METAR K6S5 122115Z AUTO 30004KT 10SM 30/09 A3017 RMK HAMILTON
METAR KS59 122115Z AUTO 00000KT 10SM 33/06 A3015 RMK LIBBY
METAR K88M 122115Z AUTO 27004KT 10SM 33/04 A3016 RMK EUREKA



USA.gov is the U.S. government's official web portal to all federal, state and local government web resources and services.